Time;durP1;ratioP1;P1;durP2;ratioP2;P2;SDS_P1;SDS_P2;PMS_P1;PMS_P2;Temp;Humidity;BMP_temperature;BMP_pressure;BME280_temperature;BME280_humidity;BME280_pressure;Samples;Min_cycle;Max_cycle;Signal;HPM_P1;HPM_P2
2022/09/08 00:00:38;;;;;;;3.15;2.00;;;21.40;89.90;;;;;;5037496;28;20021;-83
2022/09/08 00:03:15;;;;;;;3.42;1.85;;;21.40;89.80;;;;;;5036972;28;20152;-83
2022/09/08 00:05:50;;;;;;;3.38;2.25;;;21.40;89.70;;;;;;5037438;28;20035;-83
2022/09/08 00:08:20;;;;;;;6.50;2.63;;;21.50;89.70;;;;;;5054564;28;20029;-83
2022/09/08 00:10:50;;;;;;;4.35;1.83;;;21.50;89.80;;;;;;5036069;28;20029;-83
2022/09/08 00:13:18;;;;;;;3.10;1.90;;;21.50;90.00;;;;;;5037003;28;20027;-83
2022/09/08 00:15:44;;;;;;;2.88;1.70;;;21.50;90.10;;;;;;5004045;28;20040;-83
2022/09/08 00:18:11;;;;;;;3.05;1.75;;;21.50;90.10;;;;;;5036968;28;20029;-84
2022/09/08 00:20:40;;;;;;;4.90;2.38;;;21.60;90.30;;;;;;5004516;28;20029;-84
2022/09/08 00:23:05;;;;;;;4.55;2.20;;;21.60;90.30;;;;;;5036938;28;20025;-82
2022/09/08 00:25:31;;;;;;;3.03;1.83;;;21.50;90.40;;;;;;5036309;28;20083;-83
2022/09/08 00:27:57;;;;;;;2.63;1.80;;;21.50;90.50;;;;;;5036827;28;20372;-84
2022/09/08 00:30:23;;;;;;;3.38;2.03;;;21.50;90.50;;;;;;5036875;28;20029;-83
2022/09/08 00:32:49;;;;;;;5.47;2.20;;;21.50;90.60;;;;;;5036589;28;20116;-82
2022/09/08 00:35:18;;;;;;;4.03;1.90;;;21.50;90.70;;;;;;5019529;28;20100;-83
2022/09/08 00:37:48;;;;;;;5.13;2.38;;;21.50;90.80;;;;;;5037178;28;20497;-83
2022/09/08 00:40:15;;;;;;;4.20;2.15;;;21.50;90.90;;;;;;5036054;28;20468;-84
2022/09/08 00:42:42;;;;;;;4.40;2.33;;;21.50;90.90;;;;;;5054171;28;20017;-84
2022/09/08 00:45:10;;;;;;;4.47;1.88;;;21.50;91.10;;;;;;5035695;28;20029;-83
2022/09/08 00:47:46;;;;;;;2.40;1.73;;;21.40;91.20;;;;;;5036417;28;20444;-83
2022/09/08 00:50:22;;;;;;;3.85;1.60;;;21.40;91.30;;;;;;5020541;28;20029;-84
2022/09/08 00:53:00;;;;;;;3.10;1.40;;;21.40;91.30;;;;;;5036160;28;20029;-83
2022/09/08 00:55:46;;;;;;;8.65;2.28;;;21.30;91.40;;;;;;5036736;28;20029;-84
2022/09/08 00:58:14;;;;;;;7.30;2.38;;;21.30;91.60;;;;;;5038034;28;20036;-85
2022/09/08 01:00:42;;;;;;;4.32;1.83;;;21.30;91.70;;;;;;5035779;28;20029;-84
2022/09/08 01:03:13;;;;;;;4.13;1.80;;;21.20;91.90;;;;;;5035502;28;20056;-84
2022/09/08 01:06:09;;;;;;;6.05;1.77;;;21.20;92.00;;;;;;5035904;28;20028;-83
2022/09/08 01:14:50;;;;;;;4.22;2.10;;;21.20;92.20;;;;;;5054084;28;20043;-84
2022/09/08 01:17:21;;;;;;;4.57;1.92;;;21.20;92.20;;;;;;5036077;28;20024;-83
2022/09/08 01:19:47;;;;;;;;;;;21.20;92.20;;;;;;5036651;28;20021;-84
2022/09/08 01:22:43;;;;;;;4.50;1.77;;;21.30;92.30;;;;;;5036800;28;19908;-83
2022/09/08 01:25:38;;;;;;;4.38;1.75;;;21.20;92.40;;;;;;5036946;28;20021;-84
2022/09/08 01:28:09;;;;;;;4.00;1.77;;;21.20;92.40;;;;;;5038327;28;20079;-86
2022/09/08 01:30:36;;;;;;;5.82;2.10;;;21.20;92.40;;;;;;5055161;28;20016;-82
2022/09/08 01:33:09;;;;;;;3.65;1.90;;;21.20;92.50;;;;;;5043889;28;20009;-84
2022/09/08 01:35:39;;;;;;;7.03;2.42;;;21.10;92.60;;;;;;5059567;28;20029;-87
2022/09/08 01:38:06;;;;;;;;;;;21.10;92.60;;;;;;5060228;28;20030;-89
2022/09/08 01:40:31;;;;;;;5.00;2.10;;;21.10;92.60;;;;;;5059673;28;20307;-83
2022/09/08 01:42:57;;;;;;;4.18;1.70;;;21.00;92.70;;;;;;5043656;28;20020;-84
2022/09/08 01:45:23;;;;;;;4.05;1.85;;;21.10;92.70;;;;;;5036527;28;20029;-84
2022/09/08 01:47:50;;;;;;;4.00;2.28;;;21.10;92.80;;;;;;5016244;28;20124;-84
2022/09/08 01:50:16;;;;;;;6.90;2.22;;;21.10;92.90;;;;;;5015830;28;20018;-84
2022/09/08 01:52:43;;;;;;;5.95;2.15;;;21.10;92.90;;;;;;5016083;28;20116;-84
2022/09/08 01:55:11;;;;;;;4.43;2.05;;;21.10;93.00;;;;;;5000054;28;20022;-84
2022/09/08 01:57:37;;;;;;;4.50;2.40;;;21.00;93.00;;;;;;5017356;28;20117;-84
2022/09/08 02:00:05;;;;;;;7.95;2.80;;;20.90;93.00;;;;;;5000416;28;20116;-84
2022/09/08 02:02:31;;;;;;;7.35;2.42;;;20.70;93.20;;;;;;5000170;28;20033;-84
2022/09/08 02:04:57;;;;;;;3.17;2.20;;;20.60;93.50;;;;;;5016300;28;20075;-84
2022/09/08 02:07:23;;;;;;;4.32;2.42;;;20.50;93.80;;;;;;5015675;28;20525;-83
2022/09/08 02:09:49;;;;;;;5.78;2.25;;;20.60;93.80;;;;;;5015400;28;20033;-84
2022/09/08 02:12:15;;;;;;;4.85;2.40;;;20.60;93.90;;;;;;5015181;28;20021;-84
2022/09/08 02:14:40;;;;;;;4.90;2.05;;;20.70;93.90;;;;;;5015076;28;20080;-84
2022/09/08 02:17:06;;;;;;;5.22;2.30;;;20.70;93.80;;;;;;5002249;28;20029;-84
2022/09/08 02:19:35;;;;;;;5.97;2.40;;;20.70;93.80;;;;;;5002839;28;20025;-84
2022/09/08 02:22:01;;;;;;;5.55;2.42;;;20.70;93.80;;;;;;5003208;28;20029;-83
2022/09/08 02:24:26;;;;;;;3.78;2.40;;;20.70;93.60;;;;;;4986439;28;20354;-84
2022/09/08 02:26:53;;;;;;;8.70;2.55;;;20.70;93.60;;;;;;5018446;28;20039;-84
2022/09/08 02:29:19;;;;;;;6.65;2.50;;;20.70;93.70;;;;;;5018503;28;20033;-84
2022/09/08 02:31:45;;;;;;;4.88;2.65;;;20.60;93.70;;;;;;5019254;28;20017;-84
2022/09/08 02:34:15;;;;;;;5.18;2.08;;;20.60;93.70;;;;;;4986432;28;20381;-84
2022/09/08 02:36:44;;;;;;;;;;;20.60;93.70;;;;;;5019489;28;20065;-84
2022/09/08 02:39:20;;;;;;;4.03;2.08;;;20.60;93.70;;;;;;5018882;28;19999;-84
2022/09/08 02:41:47;;;;;;;4.70;2.20;;;20.60;93.70;;;;;;5034986;28;20088;-84
2022/09/08 02:44:16;;;;;;;5.78;2.65;;;20.60;93.70;;;;;;5018300;28;20037;-86
2022/09/08 02:46:42;;;;;;;5.47;2.50;;;20.50;93.70;;;;;;5018766;28;20061;-84
2022/09/08 02:49:15;;;;;;;5.38;2.45;;;20.50;93.70;;;;;;5033585;28;20056;-84
2022/09/08 02:51:41;;;;;;;7.55;2.70;;;20.60;93.70;;;;;;5055757;28;20032;-84
2022/09/08 02:54:09;;;;;;;4.70;1.98;;;20.60;93.70;;;;;;5038493;28;20029;-84
2022/09/08 02:56:35;;;;;;;5.72;2.40;;;20.60;93.70;;;;;;5021826;28;20032;-84
2022/09/08 02:59:01;;;;;;;5.65;2.50;;;20.50;93.70;;;;;;5038350;28;20017;-84
2022/09/08 03:01:26;;;;;;;4.78;2.10;;;20.50;93.70;;;;;;5037787;28;20116;-84
2022/09/08 03:03:52;;;;;;;4.97;1.98;;;20.50;93.80;;;;;;5037811;28;20393;-84
2022/09/08 03:06:18;;;;;;;4.03;2.30;;;20.50;93.80;;;;;;5021583;28;20025;-84
2022/09/08 03:08:45;;;;;;;3.38;2.25;;;20.50;93.90;;;;;;5021843;28;20052;-84
2022/09/08 03:11:14;;;;;;;2.92;2.30;;;20.50;93.90;;;;;;5038416;28;20028;-84
2022/09/08 03:13:40;;;;;;;5.22;2.58;;;20.50;93.80;;;;;;5038341;28;20527;-85
2022/09/08 03:16:08;;;;;;;3.80;2.13;;;20.50;93.90;;;;;;5038424;28;20021;-84
2022/09/08 03:18:37;;;;;;;5.97;2.63;;;20.50;93.90;;;;;;5037936;28;20459;-84
2022/09/08 03:21:08;;;;;;;5.07;2.20;;;20.50;93.90;;;;;;5038177;28;20035;-84
2022/09/08 03:23:36;;;;;;;4.85;2.45;;;20.50;93.90;;;;;;5038001;28;20540;-84
2022/09/08 03:26:09;;;;;;;3.58;2.17;;;20.50;93.90;;;;;;5054015;28;20025;-85
2022/09/08 03:28:38;;;;;;;5.18;2.38;;;20.50;93.80;;;;;;5038327;28;20063;-84
2022/09/08 03:31:13;;;;;;;5.82;2.80;;;20.50;93.80;;;;;;5048746;28;20044;-84
2022/09/08 03:33:39;;;;;;;4.45;2.22;;;20.50;93.80;;;;;;5061806;28;20028;-84
2022/09/08 03:36:08;;;;;;;4.35;2.63;;;20.50;93.80;;;;;;5061637;28;20040;-83
2022/09/08 03:38:34;;;;;;;5.38;2.38;;;20.50;93.80;;;;;;5061901;28;20017;-86
2022/09/08 03:41:00;;;;;;;3.90;2.33;;;20.50;93.80;;;;;;5061644;28;20013;-84
2022/09/08 03:43:26;;;;;;;5.47;3.17;;;20.50;93.80;;;;;;5036106;28;20020;-84
2022/09/08 03:45:52;;;;;;;2.88;2.03;;;20.60;93.80;;;;;;5039261;28;20021;-84
2022/09/08 03:48:17;;;;;;;4.53;2.75;;;20.50;93.80;;;;;;5037796;28;20107;-84
2022/09/08 03:50:43;;;;;;;7.28;2.33;;;20.60;93.90;;;;;;5038023;28;20032;-84
2022/09/08 03:53:10;;;;;;;5.57;3.05;;;20.50;94.00;;;;;;5021569;28;20029;-84
2022/09/08 03:55:39;;;;;;;6.03;2.47;;;20.50;94.00;;;;;;5037393;28;20381;-84
2022/09/08 03:58:06;;;;;;;5.82;2.63;;;20.50;94.00;;;;;;5037436;28;20025;-84
2022/09/08 04:00:31;;;;;;;3.40;2.20;;;20.50;94.00;;;;;;5037223;28;20029;-84
2022/09/08 04:02:57;;;;;;;4.63;2.40;;;20.50;94.10;;;;;;5037191;28;20029;-84
2022/09/08 04:05:25;;;;;;;4.28;2.67;;;20.50;94.10;;;;;;5037025;28;20029;-84
2022/09/08 04:07:51;;;;;;;5.22;2.90;;;20.50;94.30;;;;;;5037382;28;20021;-84
2022/09/08 04:10:19;;;;;;;4.72;2.63;;;20.60;94.20;;;;;;5036635;28;20123;-84
2022/09/08 04:12:46;;;;;;;4.68;2.67;;;20.50;94.20;;;;;;5036951;28;20029;-84
2022/09/08 04:15:14;;;;;;;4.20;2.60;;;20.50;94.20;;;;;;5036987;28;20029;-84
2022/09/08 04:17:40;;;;;;;6.20;3.03;;;20.50;94.50;;;;;;5036847;28;20032;-83
2022/09/08 04:20:09;;;;;;;3.20;2.50;;;20.50;94.20;;;;;;5020651;28;20033;-84
2022/09/08 04:22:35;;;;;;;5.35;2.83;;;20.50;94.20;;;;;;5055063;28;20048;-85
2022/09/08 04:25:01;;;;;;;12.68;2.95;;;20.40;94.20;;;;;;5020933;28;20465;-84
2022/09/08 04:27:27;;;;;;;3.72;2.80;;;20.50;94.20;;;;;;5036662;28;20040;-85
2022/09/08 04:29:55;;;;;;;4.40;2.85;;;20.50;94.20;;;;;;5020863;28;20033;-85
2022/09/08 04:32:25;;;;;;;3.65;2.50;;;20.50;94.30;;;;;;5036392;28;20396;-85
2022/09/08 04:34:50;;;;;;;4.78;2.75;;;20.50;94.30;;;;;;5053482;28;20029;-85
2022/09/08 04:37:18;;;;;;;4.03;2.50;;;20.50;94.30;;;;;;5020825;28;20036;-86
2022/09/08 04:39:44;;;;;;;3.58;2.15;;;20.50;94.20;;;;;;5036524;28;20028;-85
2022/09/08 04:42:09;;;;;;;3.03;1.98;;;20.50;94.20;;;;;;5037462;28;20465;-84
2022/09/08 04:44:35;;;;;;;2.85;1.63;;;20.50;94.20;;;;;;5038609;28;20040;-85
2022/09/08 04:47:02;;;;;;;3.83;1.85;;;20.40;94.10;;;;;;5039865;28;20025;-84
2022/09/08 04:49:27;;;;;;;4.10;1.75;;;20.40;94.10;;;;;;5058541;28;20083;-85
2022/09/08 04:51:56;;;;;;;7.63;2.25;;;20.40;94.10;;;;;;5062893;28;20025;-84
2022/09/08 04:54:22;;;;;;;4.20;2.03;;;20.30;94.10;;;;;;5042210;28;20488;-84
2022/09/08 04:56:48;;;;;;;2.95;1.60;;;20.30;94.10;;;;;;5055036;28;20017;-84
2022/09/08 04:59:14;;;;;;;3.38;1.80;;;20.30;94.10;;;;;;5036582;28;20032;-84
2022/09/08 05:01:40;;;;;;;3.78;2.08;;;20.20;94.10;;;;;;5053091;28;20029;-85
2022/09/08 05:04:05;;;;;;;2.63;1.73;;;20.20;94.10;;;;;;5057017;28;20032;-84
2022/09/08 05:06:35;;;;;;;3.97;2.13;;;20.20;94.10;;;;;;5039131;28;20044;-85
2022/09/08 05:09:02;;;;;;;4.10;2.05;;;20.20;94.10;;;;;;5048532;28;20021;-84
2022/09/08 05:11:30;;;;;;;5.18;2.10;;;20.20;94.10;;;;;;5038314;28;20029;-84
2022/09/08 05:13:56;;;;;;;5.57;2.55;;;20.20;94.10;;;;;;5037686;28;20029;-81
2022/09/08 05:16:24;;;;;;;4.43;1.77;;;20.20;94.10;;;;;;5037003;28;20476;-86
2022/09/08 05:18:59;;;;;;;5.07;2.53;;;20.10;94.10;;;;;;5037064;28;20029;-85
2022/09/08 05:21:27;;;;;;;3.50;2.30;;;20.10;94.20;;;;;;5054597;28;20468;-85
2022/09/08 05:23:55;;;;;;;4.95;2.33;;;20.10;94.20;;;;;;5035796;28;20025;-85
2022/09/08 05:26:29;;;;;;;5.25;2.35;;;20.10;94.30;;;;;;5020659;28;20419;-85
2022/09/08 05:28:55;;;;;;;4.88;2.25;;;20.10;94.30;;;;;;5052841;28;20017;-84
2022/09/08 05:31:25;;;;;;;5.32;2.03;;;20.10;94.40;;;;;;5027645;28;20552;-85
2022/09/08 05:33:54;;;;;;;5.32;2.50;;;20.10;94.40;;;;;;5042344;28;20029;-86
2022/09/08 05:36:30;;;;;;;4.72;2.35;;;20.10;94.40;;;;;;5059517;28;20025;-84
2022/09/08 05:38:59;;;;;;;7.25;2.30;;;20.20;94.40;;;;;;5043954;28;20076;-84
2022/09/08 05:41:34;;;;;;;7.13;2.60;;;20.10;94.30;;;;;;5042840;28;20041;-85
2022/09/08 05:44:01;;;;;;;5.05;2.17;;;20.10;94.30;;;;;;5062945;28;20037;-84
2022/09/08 05:46:27;;;;;;;6.45;2.75;;;20.10;94.30;;;;;;5031309;28;20484;-84
2022/09/08 05:49:01;;;;;;;5.40;2.40;;;20.10;94.30;;;;;;5020835;28;20060;-85
2022/09/08 05:51:49;;;;;;;5.95;2.83;;;20.10;94.30;;;;;;5025042;28;20036;-85
2022/09/08 05:54:20;;;;;;;4.70;2.33;;;20.00;94.40;;;;;;5056488;28;20029;-85
2022/09/08 05:56:56;;;;;;;4.95;2.85;;;20.00;94.40;;;;;;5041213;28;20040;-84
2022/09/08 05:59:22;;;;;;;4.07;2.10;;;20.00;94.50;;;;;;5039195;28;20021;-85
2022/09/08 06:01:48;;;;;;;4.93;2.70;;;20.00;94.50;;;;;;5039754;28;20507;-85
2022/09/08 06:04:15;;;;;;;4.18;2.53;;;20.00;94.50;;;;;;5039997;28;20029;-85
2022/09/08 06:06:40;;;;;;;6.03;3.08;;;19.90;94.50;;;;;;5040386;28;20397;-84
2022/09/08 06:09:09;;;;;;;4.72;2.85;;;20.00;94.60;;;;;;5024101;28;20037;-85
2022/09/08 06:11:36;;;;;;;5.95;3.00;;;20.00;94.60;;;;;;5040756;28;20017;-85
2022/09/08 06:14:03;;;;;;;6.10;3.03;;;19.90;94.60;;;;;;5023665;28;20520;-85
2022/09/08 06:16:29;;;;;;;6.68;3.15;;;19.90;94.60;;;;;;5040036;28;20423;-85
2022/09/08 06:18:58;;;;;;;6.75;2.88;;;20.00;94.70;;;;;;5040056;28;20068;-85
2022/09/08 06:21:29;;;;;;;4.93;2.72;;;19.90;94.70;;;;;;5039557;28;20025;-85
2022/09/08 06:24:01;;;;;;;4.95;2.90;;;19.90;94.70;;;;;;5039741;28;20021;-84
2022/09/08 06:26:30;;;;;;;4.03;2.65;;;20.00;94.70;;;;;;5040039;28;20029;-85
2022/09/08 06:29:01;;;;;;;6.20;3.13;;;19.90;94.70;;;;;;5039469;28;20025;-85
2022/09/08 06:31:36;;;;;;;4.80;2.67;;;19.90;94.70;;;;;;5056934;28;20029;-85
2022/09/08 06:34:11;;;;;;;4.90;2.75;;;19.90;94.80;;;;;;5039586;28;20124;-85
2022/09/08 06:37:00;;;;;;;5.38;3.08;;;19.90;94.90;;;;;;5038881;28;20029;-85
2022/09/08 06:39:42;;;;;;;4.55;2.75;;;19.90;94.90;;;;;;5039657;28;20392;-85
2022/09/08 06:42:16;;;;;;;7.53;3.10;;;19.90;94.80;;;;;;5039633;28;20037;-85
2022/09/08 06:44:45;;;;;;;4.57;2.92;;;19.90;94.80;;;;;;5039861;28;20021;-85
2022/09/08 06:47:21;;;;;;;;;;;19.80;94.80;;;;;;5057002;28;20100;-85
2022/09/08 06:49:51;;;;;;;5.78;2.95;;;19.90;94.80;;;;;;5039025;28;19916;-85
2022/09/08 06:52:34;;;;;;;4.28;2.70;;;19.80;94.80;;;;;;5039795;28;20029;-85
2022/09/08 06:55:07;;;;;;;6.32;3.15;;;19.80;94.90;;;;;;5038803;28;20200;-85
2022/09/08 06:58:14;;;;;;;6.18;3.40;;;19.90;95.10;;;;;;5055700;28;20487;-85
2022/09/08 07:00:51;;;;;;;6.72;3.35;;;19.90;94.90;;;;;;4995192;28;20037;-85
2022/09/08 07:03:35;;;;;;;7.28;3.75;;;19.90;94.90;;;;;;5056214;28;20067;-85
2022/09/08 07:06:09;;;;;;;6.35;3.38;;;19.80;94.90;;;;;;5056155;28;20025;-85
2022/09/08 07:09:02;;;;;;;5.82;3.33;;;19.90;94.90;;;;;;5038872;28;20033;-85
2022/09/08 07:11:39;;;;;;;6.07;3.17;;;19.90;94.90;;;;;;5056679;28;20017;-85
2022/09/08 07:14:10;;;;;;;7.53;3.65;;;19.90;94.90;;;;;;5055498;28;20465;-85
2022/09/08 07:16:45;;;;;;;6.88;3.08;;;19.90;94.90;;;;;;5055116;28;20029;-85
2022/09/08 07:19:32;;;;;;;8.88;4.00;;;19.90;95.00;;;;;;5038583;28;20035;-85
2022/09/08 07:22:05;;;;;;;5.78;3.22;;;19.90;95.00;;;;;;5038271;28;20029;-85
2022/09/08 07:24:38;;;;;;;9.70;3.83;;;20.00;95.00;;;;;;5039246;28;20048;-85
2022/09/08 07:27:06;;;;;;;6.50;4.60;;;20.00;95.00;;;;;;5038195;28;20044;-85
2022/09/08 07:29:41;;;;;;;7.45;3.80;;;19.90;95.00;;;;;;5039336;28;20025;-84
2022/09/08 07:32:14;;;;;;;8.88;4.18;;;19.90;95.00;;;;;;5078319;28;20039;-85
2022/09/08 07:34:51;;;;;;;4.93;3.63;;;19.90;95.10;;;;;;5062367;28;20009;-85
2022/09/08 07:37:23;;;;;;;6.13;3.55;;;19.90;95.20;;;;;;5061962;28;20048;-84
2022/09/08 07:40:17;;;;;;;8.90;3.97;;;19.90;95.30;;;;;;5079402;28;20020;-90
2022/09/08 07:42:57;;;;;;;6.13;4.03;;;19.90;95.30;;;;;;5057495;28;20021;-85
2022/09/08 07:45:51;;;;;;;7.40;3.90;;;19.90;95.30;;;;;;5039000;28;20158;-85
2022/09/08 07:48:42;;;;;;;7.65;3.83;;;20.00;95.20;;;;;;5038143;28;20095;-85
2022/09/08 07:51:16;;;;;;;6.78;4.05;;;20.00;95.10;;;;;;5055681;28;20060;-84
2022/09/08 07:54:00;;;;;;;5.93;3.47;;;20.00;95.20;;;;;;5038289;28;20025;-85
2022/09/08 07:56:42;;;;;;;6.38;4.18;;;20.00;95.10;;;;;;5054358;28;20021;-86
2022/09/08 07:59:29;;;;;;;5.82;4.03;;;20.10;95.10;;;;;;5054748;28;20091;-85
2022/09/08 08:02:33;;;;;;;6.85;4.15;;;20.10;95.10;;;;;;5054206;28;20025;-85
2022/09/08 08:04:58;;;;;;;5.30;3.72;;;20.10;95.10;;;;;;5037388;28;20025;-85
2022/09/08 08:07:36;;;;;;;6.20;3.58;;;20.20;95.10;;;;;;5053746;28;20035;-85
2022/09/08 08:10:12;;;;;;;5.32;3.85;;;20.20;95.10;;;;;;5037603;28;20087;-85
2022/09/08 08:13:13;;;;;;;6.13;4.28;;;20.20;95.10;;;;;;5037036;28;20029;-85
2022/09/08 08:15:43;;;;;;;;;;;20.20;95.10;;;;;;5034203;28;20036;-86
2022/09/08 08:18:31;;;;;;;4.00;3.60;;;20.10;95.10;;;;;;5037050;28;20379;-85
2022/09/08 08:21:04;;;;;;;3.55;3.22;;;20.20;95.20;;;;;;5053991;28;20487;-85
2022/09/08 08:23:32;;;;;;;5.28;3.40;;;20.20;95.10;;;;;;5037023;28;20027;-85
2022/09/08 08:26:24;;;;;;;4.00;2.97;;;20.20;95.10;;;;;;5054282;28;20025;-84
2022/09/08 08:29:13;;;;;;;4.72;3.35;;;20.20;95.20;;;;;;5037555;28;20092;-85
2022/09/08 08:31:49;;;;;;;4.28;3.63;;;20.30;95.20;;;;;;5036109;28;20128;-85
2022/09/08 08:34:40;;;;;;;3.72;3.35;;;20.30;95.20;;;;;;5036896;28;20035;-84
2022/09/08 08:37:08;;;;;;;;;;;20.30;95.30;;;;;;5037890;28;20025;-85
2022/09/08 08:39:35;;;;;;;5.60;3.65;;;20.40;95.30;;;;;;5037011;28;19909;-84
2022/09/08 08:42:04;;;;;;;3.78;3.45;;;20.40;95.30;;;;;;5036974;28;20104;-84
2022/09/08 08:44:57;;;;;;;5.55;4.03;;;20.40;95.40;;;;;;5053051;28;20029;-84
2022/09/08 08:47:29;;;;;;;5.32;4.30;;;20.50;95.50;;;;;;5053194;28;20025;-84
2022/09/08 08:50:07;;;;;;;4.40;3.35;;;20.50;95.50;;;;;;5053144;28;20028;-84
2022/09/08 08:53:10;;;;;;;4.63;3.63;;;20.50;95.50;;;;;;5036106;28;20025;-85
2022/09/08 08:55:56;;;;;;;4.88;3.55;;;20.60;95.50;;;;;;5052979;28;20029;-84
2022/09/08 08:58:50;;;;;;;4.18;3.30;;;20.70;95.40;;;;;;5036320;28;20036;-85
2022/09/08 09:01:16;;;;;;;4.60;3.03;;;20.70;95.40;;;;;;5035831;28;20108;-85
2022/09/08 09:04:06;;;;;;;4.05;2.72;;;20.70;95.40;;;;;;5035565;28;20182;-85
2022/09/08 09:06:58;;;;;;;3.20;2.78;;;20.80;95.50;;;;;;5052986;28;20102;-84
2022/09/08 09:09:56;;;;;;;5.75;2.95;;;20.90;95.40;;;;;;5053061;28;20104;-85
2022/09/08 09:12:51;;;;;;;3.97;3.05;;;20.90;95.30;;;;;;5054620;28;20525;-85
2022/09/08 09:15:18;;;;;;;4.82;2.97;;;21.00;95.30;;;;;;5005573;28;20056;-85
2022/09/08 09:18:09;;;;;;;4.28;2.92;;;21.00;95.20;;;;;;5053173;28;20049;-85
2022/09/08 09:20:44;;;;;;;6.68;3.25;;;21.10;95.00;;;;;;5052689;28;20116;-86
2022/09/08 09:23:27;;;;;;;4.20;2.47;;;21.10;95.00;;;;;;5036457;28;20021;-85
2022/09/08 09:26:18;;;;;;;5.20;2.70;;;21.10;95.00;;;;;;5052830;28;20025;-85
2022/09/08 09:28:54;;;;;;;4.70;2.70;;;21.10;94.90;;;;;;5053683;28;20037;-85
2022/09/08 09:31:42;;;;;;;4.28;2.58;;;21.20;94.90;;;;;;5046352;28;20013;-86
2022/09/08 09:34:25;;;;;;;3.58;2.53;;;21.10;94.90;;;;;;5058699;28;20009;-86
2022/09/08 09:37:12;;;;;;;4.05;2.40;;;21.20;94.80;;;;;;5058658;28;20040;-84
2022/09/08 09:40:02;;;;;;;4.22;2.33;;;21.20;94.80;;;;;;5049788;28;20029;-85
2022/09/08 09:42:51;;;;;;;5.50;2.80;;;21.20;94.70;;;;;;5041238;28;20092;-85
2022/09/08 09:45:35;;;;;;;4.78;2.47;;;21.20;94.70;;;;;;5053699;28;20433;-85
2022/09/08 09:48:36;;;;;;;4.10;2.45;;;21.20;94.80;;;;;;5053244;28;20049;-85
2022/09/08 09:51:31;;;;;;;4.43;2.28;;;21.30;94.70;;;;;;4993715;28;20041;-85
2022/09/08 09:54:13;;;;;;;4.43;2.60;;;21.30;94.60;;;;;;5052214;28;20028;-85
2022/09/08 09:56:58;;;;;;;3.75;2.15;;;21.30;94.40;;;;;;5036064;28;20103;-85
2022/09/08 09:59:45;;;;;;;4.35;2.05;;;21.40;94.40;;;;;;5036007;28;20033;-85
2022/09/08 10:02:26;;;;;;;4.25;2.22;;;21.50;94.20;;;;;;5052173;28;20445;-85
2022/09/08 10:05:31;;;;;;;6.03;2.08;;;21.40;94.00;;;;;;5051894;28;20121;-85
2022/09/08 10:08:17;;;;;;;2.25;1.65;;;21.40;93.80;;;;;;5035386;28;20025;-85
2022/09/08 10:11:06;;;;;;;3.25;2.10;;;21.30;93.80;;;;;;5052462;28;20025;-86
2022/09/08 10:13:38;;;;;;;3.80;1.90;;;21.30;93.80;;;;;;5027866;28;20104;-85
2022/09/08 10:16:37;;;;;;;3.95;2.13;;;21.30;93.80;;;;;;5034904;28;20025;-86
2022/09/08 10:19:40;;;;;;;2.88;1.70;;;21.40;93.80;;;;;;5032352;28;20021;-85
2022/09/08 10:22:19;;;;;;;3.35;2.08;;;21.40;93.70;;;;;;5032339;28;20064;-85
2022/09/08 10:25:25;;;;;;;2.47;1.67;;;21.40;93.70;;;;;;5035023;28;20029;-85
2022/09/08 10:27:59;;;;;;;2.75;1.90;;;21.40;93.60;;;;;;4991952;28;20125;-85
2022/09/08 10:30:46;;;;;;;4.10;1.95;;;21.50;93.40;;;;;;4975516;28;20117;-85
2022/09/08 10:33:46;;;;;;;3.58;2.38;;;21.50;93.30;;;;;;4975189;28;20023;-85
2022/09/08 10:36:15;;;;;;;3.13;2.10;;;21.50;93.30;;;;;;4953564;28;20041;-85
2022/09/08 10:38:55;;;;;;;3.97;1.80;;;21.60;93.30;;;;;;4979038;28;20035;-85
2022/09/08 10:41:58;;;;;;;3.63;1.90;;;21.60;93.20;;;;;;4978962;28;20026;-85
2022/09/08 10:44:30;;;;;;;4.25;1.70;;;21.60;93.10;;;;;;4979119;28;20498;-85
2022/09/08 10:46:55;;;;;;;5.25;1.73;;;21.70;93.00;;;;;;4978480;28;20030;-85
2022/09/08 10:49:55;;;;;;;3.47;1.40;;;21.70;92.90;;;;;;4978114;28;20282;-85
2022/09/08 10:52:38;;;;;;;2.28;1.50;;;21.70;92.80;;;;;;4994761;28;20034;-84
2022/09/08 10:55:16;;;;;;;3.45;1.30;;;21.70;92.70;;;;;;4978876;28;20092;-85
2022/09/08 10:58:29;;;;;;;2.28;1.38;;;21.60;92.80;;;;;;4982706;28;20517;-85
2022/09/08 11:01:15;;;;;;;3.05;1.83;;;21.60;92.80;;;;;;5037783;28;20068;-85
2022/09/08 11:04:03;;;;;;;4.88;1.60;;;21.60;92.80;;;;;;5038197;28;20083;-85
2022/09/08 11:06:53;;;;;;;3.35;1.70;;;21.60;92.70;;;;;;5034762;28;20029;-84
2022/09/08 11:09:34;;;;;;;3.72;1.60;;;21.70;92.50;;;;;;5038097;28;20353;-84
2022/09/08 11:12:22;;;;;;;3.17;1.48;;;21.70;92.60;;;;;;5054987;28;20063;-84
2022/09/08 11:15:04;;;;;;;3.03;1.50;;;21.80;92.60;;;;;;5055323;28;20063;-84
2022/09/08 11:17:46;;;;;;;3.40;1.80;;;21.80;92.70;;;;;;5056259;28;20116;-84
2022/09/08 11:20:52;;;;;;;4.07;1.70;;;21.90;92.60;;;;;;5056182;28;20064;-85
2022/09/08 11:23:38;;;;;;;3.25;1.60;;;21.90;92.40;;;;;;5038348;28;20049;-84
2022/09/08 11:26:10;;;;;;;2.35;1.40;;;22.00;92.50;;;;;;5039210;28;20025;-84
2022/09/08 11:29:02;;;;;;;2.53;1.40;;;22.00;92.60;;;;;;5040173;28;20029;-84
2022/09/08 11:31:53;;;;;;;2.78;1.17;;;22.10;92.80;;;;;;5042066;28;20033;-84
2022/09/08 11:34:48;;;;;;;2.72;1.10;;;22.10;92.30;;;;;;5054952;28;20029;-85
2022/09/08 11:37:47;;;;;;;3.20;1.40;;;22.10;92.20;;;;;;5060377;28;20040;-86
2022/09/08 11:40:38;;;;;;;2.20;0.90;;;22.10;91.60;;;;;;5059861;28;20101;-87
2022/09/08 11:43:23;;;;;;;2.25;0.93;;;22.10;91.40;;;;;;5043100;28;20089;-84
2022/09/08 11:46:05;;;;;;;3.97;1.52;;;22.00;90.90;;;;;;5075400;28;20009;-83
2022/09/08 11:48:56;;;;;;;2.55;1.33;;;22.00;90.90;;;;;;5036075;28;20053;-85
2022/09/08 11:51:35;;;;;;;3.70;1.45;;;22.00;91.10;;;;;;5037980;28;20017;-85
2022/09/08 11:54:04;;;;;;;3.60;1.40;;;22.00;91.10;;;;;;5054240;28;20025;-84
2022/09/08 11:56:52;;;;;;;4.70;1.45;;;22.00;91.20;;;;;;5053967;28;20021;-85
2022/09/08 11:59:42;;;;;;;4.47;1.20;;;22.10;91.20;;;;;;5054886;28;20405;-85
2022/09/08 12:02:39;;;;;;;3.33;1.10;;;22.10;91.20;;;;;;5054256;28;20066;-85
2022/09/08 12:05:42;;;;;;;2.88;1.15;;;22.20;91.00;;;;;;5037251;28;20036;-85
2022/09/08 12:08:45;;;;;;;3.72;1.35;;;22.20;91.00;;;;;;5053665;28;20032;-85
2022/09/08 12:11:29;;;;;;;5.60;1.40;;;22.30;90.80;;;;;;5037020;28;20476;-84
2022/09/08 12:14:13;;;;;;;2.33;1.20;;;22.30;90.70;;;;;;5037486;28;20464;-84
2022/09/08 12:16:44;;;;;;;5.00;1.40;;;22.40;90.80;;;;;;5053901;28;20025;-85
2022/09/08 12:19:36;;;;;;;3.25;1.10;;;22.30;90.70;;;;;;5037332;28;20029;-83
2022/09/08 12:22:10;;;;;;;3.17;1.25;;;22.40;90.80;;;;;;5037598;28;20025;-84
2022/09/08 12:24:59;;;;;;;3.17;1.38;;;22.40;90.60;;;;;;5026784;28;20025;-83
2022/09/08 12:28:10;;;;;;;1.50;0.90;;;22.40;90.40;;;;;;5053404;28;20128;-84
2022/09/08 12:31:19;;;;;;;3.55;1.27;;;22.40;90.00;;;;;;4959414;28;20117;-84
2022/09/08 12:33:56;;;;;;;4.78;1.20;;;22.40;89.70;;;;;;4977583;28;20036;-84
2022/09/08 12:36:30;;;;;;;2.58;1.10;;;22.40;89.50;;;;;;5029230;28;20488;-84
2022/09/08 12:42:39;;;;;;;4.15;1.30;;;22.50;89.50;;;;;;5046127;28;20040;-84
2022/09/08 12:45:24;;;;;;;3.70;1.30;;;22.50;89.00;;;;;;5054127;28;20064;-84
2022/09/08 12:48:17;;;;;;;2.35;1.10;;;22.50;88.70;;;;;;5054181;28;20039;-84
2022/09/08 12:50:42;;;;;;;2.15;0.80;;;22.60;88.90;;;;;;5037216;28;20358;-83
2022/09/08 12:53:39;;;;;;;3.88;1.10;;;22.60;88.90;;;;;;5054392;28;20112;-84
2022/09/08 12:56:10;;;;;;;4.43;1.17;;;22.60;88.30;;;;;;5037234;28;20052;-84
2022/09/08 12:58:56;;;;;;;2.88;0.80;;;22.70;87.70;;;;;;5035178;28;20120;-83
2022/09/08 13:01:42;;;;;;;2.63;1.23;;;22.70;87.30;;;;;;5037825;28;20373;-79
2022/09/08 13:04:17;;;;;;;2.00;0.93;;;22.70;87.50;;;;;;5059782;28;20068;-78
2022/09/08 13:07:16;;;;;;;5.63;1.13;;;22.70;87.50;;;;;;5055229;28;20035;-78
2022/09/08 13:10:14;;;;;;;3.88;1.10;;;22.70;87.60;;;;;;5056967;28;20036;-77
2022/09/08 13:13:05;;;;;;;2.72;0.90;;;22.80;87.60;;;;;;5055393;28;20017;-76
2022/09/08 13:15:40;;;;;;;5.00;1.40;;;22.90;87.50;;;;;;5073623;28;20093;-76
2022/09/08 13:18:08;;;;;;;3.45;1.20;;;22.90;87.30;;;;;;5053743;28;20349;-78
2022/09/08 13:20:40;;;;;;;4.35;1.10;;;22.90;87.10;;;;;;5063364;28;20021;-79
2022/09/08 13:23:33;;;;;;;3.28;1.10;;;22.90;86.80;;;;;;5059801;28;20025;-79
2022/09/08 13:26:13;;;;;;;2.38;0.70;;;22.90;86.60;;;;;;5078002;28;20040;-77
2022/09/08 13:29:02;;;;;;;2.78;1.13;;;23.00;86.50;;;;;;5068500;28;20469;-77
2022/09/08 13:31:58;;;;;;;2.90;1.10;;;23.00;86.30;;;;;;5063365;28;20413;-79
2022/09/08 13:34:50;;;;;;;1.42;0.82;;;23.10;85.90;;;;;;5061943;28;20029;-77
2022/09/08 13:37:43;;;;;;;1.30;0.90;;;23.10;85.70;;;;;;5060862;28;20099;-78
2022/09/08 13:40:27;;;;;;;3.47;1.08;;;23.20;85.80;;;;;;5060028;28;20036;-77
2022/09/08 13:43:12;;;;;;;3.17;1.30;;;23.20;85.30;;;;;;5059941;28;20013;-77
2022/09/08 13:45:59;;;;;;;2.70;1.10;;;23.20;85.20;;;;;;5059903;28;20033;-77